sensor_id;sensor_type;location;lat;lon;timestamp;pressure;altitude;pressure_sealevel;temperature;humidity
31162;BME280;17796;49.296;-117.656;2023-03-15T00:01:23;95400;;;4.44735;38.30823
31162;BME280;17796;49.296;-117.656;2023-03-15T00:16:26;95400;;;3.98115;41.7966
31162;BME280;17796;49.296;-117.656;2023-03-15T00:31:30;95400;;;4.17456;45.06839
31162;BME280;17796;49.296;-117.656;2023-03-15T00:46:35;95300;;;4.10183;45.5069
31162;BME280;17796;49.296;-117.656;2023-03-15T01:01:38;95300;;;4.51087;46.3054
31162;BME280;17796;49.296;-117.656;2023-03-15T01:16:43;95300;;;3.24819;47.57926
31162;BME280;17796;49.296;-117.656;2023-03-15T01:31:46;95300;;;2.93919;45.67411
31162;BME280;17796;49.296;-117.656;2023-03-15T01:46:50;95300;;;3.27391;49.7667
31162;BME280;17796;49.296;-117.656;2023-03-15T02:01:54;95300;;;2.40821;51.88965
31162;BME280;17796;49.296;-117.656;2023-03-15T02:16:59;95300;;;1.38373;53.03592
31162;BME280;17796;49.296;-117.656;2023-03-15T02:32:03;95300;;;0.74161;55.45781
31162;BME280;17796;49.296;-117.656;2023-03-15T02:47:08;95300;;;1.36627;53.86295
31162;BME280;17796;49.296;-117.656;2023-03-15T03:02:17;95300;;;0.76384;56.31221
31162;BME280;17796;49.296;-117.656;2023-03-15T03:17:21;95300;;;0.03408;58.65819
31162;BME280;17796;49.296;-117.656;2023-03-15T03:32:25;95300;;;-0.60231;58.75186
31162;BME280;17796;49.296;-117.656;2023-03-15T03:47:28;95300;;;0.14777;56.19643
31162;BME280;17796;49.296;-117.656;2023-03-15T04:02:32;95300;;;-1.26379;62.2803
31162;BME280;17796;49.296;-117.656;2023-03-15T04:17:36;95300;;;-1.14153;61.7186
31162;BME280;17796;49.296;-117.656;2023-03-15T04:32:40;95300;;;-0.15106;60.06484
31162;BME280;17796;49.296;-117.656;2023-03-15T04:47:43;95300;;;-0.74902;61.44034
31162;BME280;17796;49.296;-117.656;2023-03-15T05:02:47;95300;;;-0.86049;61.98146
31162;BME280;17796;49.296;-117.656;2023-03-15T05:17:51;95300;;;-0.73283;60.84415
31162;BME280;17796;49.296;-117.656;2023-03-15T05:32:55;95400;;;-0.99323;61.16343
31162;BME280;17796;49.296;-117.656;2023-03-15T05:47:58;95400;;;-1.24981;63.33117
31162;BME280;17796;49.296;-117.656;2023-03-15T06:03:02;95400;;;-1.23489;62.26563
31162;BME280;17796;49.296;-117.656;2023-03-15T06:18:06;95400;;;-1.09516;62.04966
31162;BME280;17796;49.296;-117.656;2023-03-15T06:33:09;95400;;;-1.33365;62.21595
31162;BME280;17796;49.296;-117.656;2023-03-15T06:48:13;95400;;;-1.9278;63.50161
31162;BME280;17796;49.296;-117.656;2023-03-15T07:03:17;95400;;;-2.22249;65.34267
31162;BME280;17796;49.296;-117.656;2023-03-15T07:18:20;95500;;;-2.05323;65.64866
31162;BME280;17796;49.296;-117.656;2023-03-15T07:33:24;95500;;;-2.18565;64.97436
31162;BME280;17796;49.296;-117.656;2023-03-15T07:48:29;95500;;;-2.06657;63.32911
31162;BME280;17796;49.296;-117.656;2023-03-15T08:03:33;95500;;;-1.83444;63.51298
31162;BME280;17796;49.296;-117.656;2023-03-15T08:18:37;95500;;;-2.5429;64.76519
31162;BME280;17796;49.296;-117.656;2023-03-15T08:33:40;95500;;;-2.34824;63.7531
31162;BME280;17796;49.296;-117.656;2023-03-15T08:48:44;95600;;;-2.63658;63.39127
31162;BME280;17796;49.296;-117.656;2023-03-15T09:03:47;95600;;;-2.76804;64.47787
31162;BME280;17796;49.296;-117.656;2023-03-15T09:18:51;95600;;;-2.88744;64.43732
31162;BME280;17796;49.296;-117.656;2023-03-15T09:33:54;95600;;;-2.62038;63.08161
31162;BME280;17796;49.296;-117.656;2023-03-15T09:49:00;95600;;;-3.43395;66.23334
31162;BME280;17796;49.296;-117.656;2023-03-15T10:04:11;95700;;;-3.00367;63.3843
31162;BME280;17796;49.296;-117.656;2023-03-15T10:19:28;95700;;;-4.17447;67.30395
31162;BME280;17796;49.296;-117.656;2023-03-15T10:34:38;95700;;;-3.92615;68.11986
31162;BME280;17796;49.296;-117.656;2023-03-15T10:49:43;95700;;;-3.59781;66.04249
31162;BME280;17796;49.296;-117.656;2023-03-15T11:04:48;95700;;;-4.1008;67.25511
31162;BME280;17796;49.296;-117.656;2023-03-15T11:20:02;95800;;;-3.52032;64.50421
31162;BME280;17796;49.296;-117.656;2023-03-15T11:35:21;95800;;;-4.96611;70.72495
31162;BME280;17796;49.296;-117.656;2023-03-15T11:50:29;95800;;;-5.12203;72.92798
31162;BME280;17796;49.296;-117.656;2023-03-15T12:05:49;95900;;;-4.44566;69.46775
31162;BME280;17796;49.296;-117.656;2023-03-15T12:21:04;95900;;;-3.89821;65.08738
31162;BME280;17796;49.296;-117.656;2023-03-15T12:36:13;95900;;;-4.08524;68.28687
31162;BME280;17796;49.296;-117.656;2023-03-15T12:51:40;96000;;;-5.0582;71.9824
31162;BME280;17796;49.296;-117.656;2023-03-15T13:06:54;96000;;;-5.0274;69.81676
31162;BME280;17796;49.296;-117.656;2023-03-15T13:22:14;96000;;;-4.74669;70.4082
31162;BME280;17796;49.296;-117.656;2023-03-15T13:37:25;96000;;;-3.87121;65.93641
31162;BME280;17796;49.296;-117.656;2023-03-15T13:52:29;96100;;;-4.13002;68.01775
31162;BME280;17796;49.296;-117.656;2023-03-15T14:07:34;96100;;;-5.54531;72.01114
31162;BME280;17796;49.296;-117.656;2023-03-15T14:22:40;96100;;;-4.43327;68.7265
31162;BME280;17796;49.296;-117.656;2023-03-15T14:37:44;96100;;;-4.27609;68.96623
31162;BME280;17796;49.296;-117.656;2023-03-15T14:52:48;96200;;;-4.45264;71.02688
31162;BME280;17796;49.296;-117.656;2023-03-15T15:07:55;96200;;;-3.12847;67.85358
31162;BME280;17796;49.296;-117.656;2023-03-15T15:23:03;96200;;;-2.74804;66.24351
31162;BME280;17796;49.296;-117.656;2023-03-15T15:38:08;96200;;;-1.19075;61.63911
31162;BME280;17796;49.296;-117.656;2023-03-15T15:53:14;96200;;;-1.45686;63.62427
31162;BME280;17796;49.296;-117.656;2023-03-15T16:08:20;96300;;;-1.67502;63.10244
31162;BME280;17796;49.296;-117.656;2023-03-15T16:23:25;96300;;;-0.93734;59.47426
31162;BME280;17796;49.296;-117.656;2023-03-15T16:38:30;96300;;;-0.44925;58.23854
31162;BME280;17796;49.296;-117.656;2023-03-15T16:53:34;96300;;;-0.4683;57.83705
31162;BME280;17796;49.296;-117.656;2023-03-15T17:08:38;96300;;;-1.14153;58.28588
31162;BME280;17796;49.296;-117.656;2023-03-15T17:23:41;96300;;;0.68509;55.75818
31162;BME280;17796;49.296;-117.656;2023-03-15T17:38:46;96300;;;2.44378;54.75642
31162;BME280;17796;49.296;-117.656;2023-03-15T17:53:51;96300;;;2.86297;51.40087
31162;BME280;17796;49.296;-117.656;2023-03-15T18:08:55;96300;;;2.13129;49.83894
31162;BME280;17796;49.296;-117.656;2023-03-15T18:23:58;96300;;;3.18785;50.84582
31162;BME280;17796;49.296;-117.656;2023-03-15T18:39:02;96400;;;3.35362;46.90973
31162;BME280;17796;49.296;-117.656;2023-03-15T18:54:06;96300;;;3.58545;47.99829
31162;BME280;17796;49.296;-117.656;2023-03-15T19:09:09;96300;;;3.1526;49.24732
31162;BME280;17796;49.296;-117.656;2023-03-15T19:24:13;96400;;;3.79569;48.53137
31162;BME280;17796;49.296;-117.656;2023-03-15T19:39:17;96400;;;3.41491;49.83732
31162;BME280;17796;49.296;-117.656;2023-03-15T19:54:20;96400;;;4.73095;46.25405
31162;BME280;17796;49.296;-117.656;2023-03-15T20:09:24;96400;;;4.13613;44.62787
31162;BME280;17796;49.296;-117.656;2023-03-15T20:24:27;96400;;;3.92875;48.99057
31162;BME280;17796;49.296;-117.656;2023-03-15T20:39:31;96400;;;3.48288;48.62891
31162;BME280;17796;49.296;-117.656;2023-03-15T20:54:35;96400;;;4.98057;49.12403
31162;BME280;17796;49.296;-117.656;2023-03-15T21:09:39;96400;;;5.27878;40.98179
31162;BME280;17796;49.296;-117.656;2023-03-15T21:24:43;96400;;;5.72053;37.36332
31162;BME280;17796;49.296;-117.656;2023-03-15T21:39:46;96400;;;5.8806;42.18917
31162;BME280;17796;49.296;-117.656;2023-03-15T21:54:50;96400;;;6.26011;37.43545
31162;BME280;17796;49.296;-117.656;2023-03-15T22:09:53;96400;;;6.94737;36.82217
31162;BME280;17796;49.296;-117.656;2023-03-15T22:24:57;96400;;;5.64273;42.2036
31162;BME280;17796;49.296;-117.656;2023-03-15T22:40:01;96400;;;7.32434;37.85534
31162;BME280;17796;49.296;-117.656;2023-03-15T22:55:05;96400;;;8.02304;30.76521
31162;BME280;17796;49.296;-117.656;2023-03-15T23:10:11;96400;;;8.07957;32.65379
31162;BME280;17796;49.296;-117.656;2023-03-15T23:25:16;96400;;;7.20017;37.70934
31162;BME280;17796;49.296;-117.656;2023-03-15T23:40:22;96500;;;6.57198;40.34053
31162;BME280;17796;49.296;-117.656;2023-03-15T23:55:25;96500;;;6.01208;40.43272
